Bellemont, AZ (86015)

5:33 AM MST on November 21, 2014 (GMT -0700)
Bellemont, AZ | Change Station
CLOSE
Current Station
Personal Weather Station
Location: Bellemont, AZ
Elevation: 7165 ft
Nearby Weather Stations

Elev 7165 ft 35.23 °N, 111.81 °W | Updated 9 seconds ago

Mostly Cloudy
Mostly Cloudy
25.3 °F
Feels Like 25 °F
N
0.0
Wind Variable Wind from East
Gusts 0.0 mph

Today
High -- | Low -- °F
--% Chance of Precip.
Yesterday
High -- | Low -- °F
Precip. -- in
7:08 AM 5:17 PM
Waning Crescent, 1% visible
Pressure 29.91 in
Visibility 10.0 miles
Clouds Clear
Windchill 25 °F
Dew Point 17 °F
Humidity 70%
Rainfall 0.28 in
Snow Depth Not available.
UV 0 out of 12
Pollen .60 out of 12
Air Quality Not available.
Flu Activity Not available.
METAR KFLG 211157Z AUTO 00000KT 10SM CLR M02/M09 A3000 RMK AO2 SLP127 T10221089 11017 21028 58011 TSNO

More Conditions Fewer Conditions

Pressure 29.91 in
Visibility 10.0 miles
Clouds Clear
Windchill 25 °F
Dew Point 17 °F
Humidity 70%
Rainfall 0.28 in
Snow Depth Not available.
UV 0 out of 12
Pollen .60 out of 12
Air Quality Not available.
Flu Activity Not available.
METAR KFLG 211157Z AUTO 00000KT 10SM CLR M02/M09 A3000 RMK AO2 SLP127 T10221089 11017 21028 58011 TSNO

More Conditions Fewer Conditions

10-Day Weather Forecast

Almanac

Astronomy

Nov. 21, 2014 Rise Set
Actual Time
Civil Twilight
Nautical Twilight
Astronomical Twilight
Moon
Length of Visible Light
Length of Day
Tomorrow will be .
, % of the Moon is Illuminated

Today's Extremes

State Highs State Lows

Community

WunderPhotos

Upload Photos

1,772,654 photos uploaded!

WunderBlogs® & News

Nearby

Air Quality

  Air Quality AQ Index Pollutant
Not available.

Snow Depth

Station Depth Elevation

Earthquake Activity

City Distance Mag. Time & Date
Minimum magnitude displayed is 2.5.

Coastal Water Temperatures

Place Temperature

Nearby Weather Stations